sensor_id;sensor_type;location;lat;lon;timestamp;P1;durP1;ratioP1;P2;durP2;ratioP2
34098;SDS011;20374;49.474;10.944;2023-03-01T00:01:24;4.70;;;2.80;;
34098;SDS011;20374;49.474;10.944;2023-03-01T00:03:51;3.65;;;2.60;;
34098;SDS011;20374;49.474;10.944;2023-03-01T00:06:18;4.20;;;3.13;;
34098;SDS011;20374;49.474;10.944;2023-03-01T00:08:44;2.80;;;2.60;;
34098;SDS011;20374;49.474;10.944;2023-03-01T00:13:47;2.92;;;2.72;;
34098;SDS011;20374;49.474;10.944;2023-03-01T00:16:16;2.78;;;2.35;;
34098;SDS011;20374;49.474;10.944;2023-03-01T00:18:47;2.20;;;2.00;;
34098;SDS011;20374;49.474;10.944;2023-03-01T00:21:13;3.58;;;1.77;;
34098;SDS011;20374;49.474;10.944;2023-03-01T00:23:39;2.28;;;2.08;;
34098;SDS011;20374;49.474;10.944;2023-03-01T00:26:06;2.40;;;2.20;;
34098;SDS011;20374;49.474;10.944;2023-03-01T00:28:35;2.00;;;1.88;;
34098;SDS011;20374;49.474;10.944;2023-03-01T00:31:05;3.03;;;2.83;;
34098;SDS011;20374;49.474;10.944;2023-03-01T00:33:34;2.20;;;2.00;;
34098;SDS011;20374;49.474;10.944;2023-03-01T00:36:00;3.88;;;3.25;;
34098;SDS011;20374;49.474;10.944;2023-03-01T00:38:27;3.63;;;3.20;;
34098;SDS011;20374;49.474;10.944;2023-03-01T00:40:53;4.03;;;3.72;;
34098;SDS011;20374;49.474;10.944;2023-03-01T00:43:18;3.47;;;2.83;;
34098;SDS011;20374;49.474;10.944;2023-03-01T00:45:44;3.40;;;3.13;;
34098;SDS011;20374;49.474;10.944;2023-03-01T00:48:10;2.50;;;2.30;;
34098;SDS011;20374;49.474;10.944;2023-03-01T00:50:36;3.07;;;2.87;;
34098;SDS011;20374;49.474;10.944;2023-03-01T00:53:02;3.33;;;3.03;;
34098;SDS011;20374;49.474;10.944;2023-03-01T00:55:30;2.75;;;2.55;;
34098;SDS011;20374;49.474;10.944;2023-03-01T00:57:56;2.95;;;2.65;;
34098;SDS011;20374;49.474;10.944;2023-03-01T01:00:21;2.70;;;2.50;;
34098;SDS011;20374;49.474;10.944;2023-03-01T01:02:48;2.25;;;2.05;;
34098;SDS011;20374;49.474;10.944;2023-03-01T01:05:14;7.78;;;3.28;;
34098;SDS011;20374;49.474;10.944;2023-03-01T01:07:46;3.78;;;2.95;;
34098;SDS011;20374;49.474;10.944;2023-03-01T01:10:13;3.50;;;3.23;;
34098;SDS011;20374;49.474;10.944;2023-03-01T01:12:43;3.15;;;2.70;;
34098;SDS011;20374;49.474;10.944;2023-03-01T01:15:10;4.03;;;3.72;;
34098;SDS011;20374;49.474;10.944;2023-03-01T01:17:39;2.25;;;2.05;;
34098;SDS011;20374;49.474;10.944;2023-03-01T01:20:05;2.25;;;2.05;;
34098;SDS011;20374;49.474;10.944;2023-03-01T01:22:32;3.90;;;2.70;;
34098;SDS011;20374;49.474;10.944;2023-03-01T01:24:58;2.33;;;2.13;;
34098;SDS011;20374;49.474;10.944;2023-03-01T01:27:24;3.45;;;3.22;;
34098;SDS011;20374;49.474;10.944;2023-03-01T01:29:50;2.90;;;2.70;;
34098;SDS011;20374;49.474;10.944;2023-03-01T01:32:18;1.75;;;1.65;;
34098;SDS011;20374;49.474;10.944;2023-03-01T01:34:44;3.08;;;2.78;;
34098;SDS011;20374;49.474;10.944;2023-03-01T01:37:11;2.75;;;2.53;;
34098;SDS011;20374;49.474;10.944;2023-03-01T01:39:37;3.40;;;3.10;;
34098;SDS011;20374;49.474;10.944;2023-03-01T01:42:03;1.60;;;1.30;;
34098;SDS011;20374;49.474;10.944;2023-03-01T01:44:29;3.13;;;2.70;;
34098;SDS011;20374;49.474;10.944;2023-03-01T01:47:03;2.05;;;1.85;;
34098;SDS011;20374;49.474;10.944;2023-03-01T01:52:11;3.40;;;3.10;;
34098;SDS011;20374;49.474;10.944;2023-03-01T01:57:24;2.10;;;1.90;;
34098;SDS011;20374;49.474;10.944;2023-03-01T01:59:55;5.15;;;2.95;;
34098;SDS011;20374;49.474;10.944;2023-03-01T02:02:24;2.33;;;2.13;;
34098;SDS011;20374;49.474;10.944;2023-03-01T02:04:53;3.55;;;3.25;;
34098;SDS011;20374;49.474;10.944;2023-03-01T02:07:28;2.50;;;2.30;;
34098;SDS011;20374;49.474;10.944;2023-03-01T02:09:55;2.17;;;1.95;;
34098;SDS011;20374;49.474;10.944;2023-03-01T02:12:23;2.45;;;2.13;;
34098;SDS011;20374;49.474;10.944;2023-03-01T02:14:49;2.63;;;2.43;;
34098;SDS011;20374;49.474;10.944;2023-03-01T02:17:16;3.55;;;3.20;;
34098;SDS011;20374;49.474;10.944;2023-03-01T02:20:03;3.10;;;2.90;;
34098;SDS011;20374;49.474;10.944;2023-03-01T02:22:37;3.75;;;3.50;;
34098;SDS011;20374;49.474;10.944;2023-03-01T02:30:29;2.40;;;2.20;;
34098;SDS011;20374;49.474;10.944;2023-03-01T02:32:56;3.22;;;3.03;;
34098;SDS011;20374;49.474;10.944;2023-03-01T02:35:28;3.20;;;2.90;;
34098;SDS011;20374;49.474;10.944;2023-03-01T02:37:58;3.47;;;3.17;;
34098;SDS011;20374;49.474;10.944;2023-03-01T02:40:27;4.05;;;3.00;;
34098;SDS011;20374;49.474;10.944;2023-03-01T02:42:56;2.05;;;1.90;;
34098;SDS011;20374;49.474;10.944;2023-03-01T02:45:25;3.10;;;2.90;;
34098;SDS011;20374;49.474;10.944;2023-03-01T02:47:55;2.45;;;2.25;;
34098;SDS011;20374;49.474;10.944;2023-03-01T02:55:23;2.70;;;2.50;;
34098;SDS011;20374;49.474;10.944;2023-03-01T02:57:49;5.13;;;3.72;;
34098;SDS011;20374;49.474;10.944;2023-03-01T03:00:21;2.40;;;2.20;;
34098;SDS011;20374;49.474;10.944;2023-03-01T03:02:52;3.90;;;3.50;;
34098;SDS011;20374;49.474;10.944;2023-03-01T03:05:23;5.43;;;2.40;;
34098;SDS011;20374;49.474;10.944;2023-03-01T03:07:54;1.80;;;1.70;;
34098;SDS011;20374;49.474;10.944;2023-03-01T03:10:22;4.55;;;2.92;;
34098;SDS011;20374;49.474;10.944;2023-03-01T03:12:50;2.13;;;1.83;;
34098;SDS011;20374;49.474;10.944;2023-03-01T03:15:18;3.10;;;2.47;;
34098;SDS011;20374;49.474;10.944;2023-03-01T03:17:45;1.75;;;1.65;;
34098;SDS011;20374;49.474;10.944;2023-03-01T03:20:13;2.20;;;2.00;;
34098;SDS011;20374;49.474;10.944;2023-03-01T03:22:51;2.53;;;2.33;;
34098;SDS011;20374;49.474;10.944;2023-03-01T03:25:18;2.20;;;2.00;;
34098;SDS011;20374;49.474;10.944;2023-03-01T03:27:47;2.30;;;2.10;;
34098;SDS011;20374;49.474;10.944;2023-03-01T03:30:18;1.70;;;1.60;;
34098;SDS011;20374;49.474;10.944;2023-03-01T03:32:47;2.40;;;1.90;;
34098;SDS011;20374;49.474;10.944;2023-03-01T03:35:21;3.33;;;3.03;;
34098;SDS011;20374;49.474;10.944;2023-03-01T03:37:53;2.72;;;2.50;;
34098;SDS011;20374;49.474;10.944;2023-03-01T03:40:29;3.20;;;3.00;;
34098;SDS011;20374;49.474;10.944;2023-03-01T03:42:59;3.97;;;3.67;;
34098;SDS011;20374;49.474;10.944;2023-03-01T03:45:25;2.83;;;2.63;;
34098;SDS011;20374;49.474;10.944;2023-03-01T03:47:51;3.08;;;2.88;;
34098;SDS011;20374;49.474;10.944;2023-03-01T03:50:17;2.60;;;2.40;;
34098;SDS011;20374;49.474;10.944;2023-03-01T03:52:43;3.60;;;3.30;;
34098;SDS011;20374;49.474;10.944;2023-03-01T03:55:10;3.53;;;3.22;;
34098;SDS011;20374;49.474;10.944;2023-03-01T03:57:37;3.67;;;3.20;;
34098;SDS011;20374;49.474;10.944;2023-03-01T04:00:05;3.67;;;3.38;;
34098;SDS011;20374;49.474;10.944;2023-03-01T04:02:38;2.85;;;2.65;;
34098;SDS011;20374;49.474;10.944;2023-03-01T04:05:05;2.23;;;2.03;;
34098;SDS011;20374;49.474;10.944;2023-03-01T04:07:32;2.72;;;2.00;;
34098;SDS011;20374;49.474;10.944;2023-03-01T04:09:57;2.25;;;2.05;;
34098;SDS011;20374;49.474;10.944;2023-03-01T04:12:23;2.92;;;2.72;;
34098;SDS011;20374;49.474;10.944;2023-03-01T04:14:49;2.33;;;2.13;;
34098;SDS011;20374;49.474;10.944;2023-03-01T04:17:15;3.03;;;2.45;;
34098;SDS011;20374;49.474;10.944;2023-03-01T04:19:41;2.63;;;2.42;;
34098;SDS011;20374;49.474;10.944;2023-03-01T04:22:09;3.92;;;3.50;;
34098;SDS011;20374;49.474;10.944;2023-03-01T04:24:36;2.63;;;2.42;;
34098;SDS011;20374;49.474;10.944;2023-03-01T04:27:02;2.72;;;2.53;;
34098;SDS011;20374;49.474;10.944;2023-03-01T04:29:28;2.45;;;2.25;;
34098;SDS011;20374;49.474;10.944;2023-03-01T04:31:54;2.90;;;2.70;;
34098;SDS011;20374;49.474;10.944;2023-03-01T04:34:20;2.22;;;2.03;;
34098;SDS011;20374;49.474;10.944;2023-03-01T04:36:46;2.45;;;2.25;;
34098;SDS011;20374;49.474;10.944;2023-03-01T04:39:11;3.43;;;3.13;;
34098;SDS011;20374;49.474;10.944;2023-03-01T04:41:38;2.42;;;2.22;;
34098;SDS011;20374;49.474;10.944;2023-03-01T04:44:05;2.20;;;2.00;;
34098;SDS011;20374;49.474;10.944;2023-03-01T04:46:31;2.83;;;2.63;;
34098;SDS011;20374;49.474;10.944;2023-03-01T04:48:57;2.85;;;2.63;;
34098;SDS011;20374;49.474;10.944;2023-03-01T04:51:23;2.45;;;2.25;;
34098;SDS011;20374;49.474;10.944;2023-03-01T04:53:49;3.65;;;2.53;;
34098;SDS011;20374;49.474;10.944;2023-03-01T04:56:15;3.72;;;2.50;;
34098;SDS011;20374;49.474;10.944;2023-03-01T04:58:43;2.47;;;2.10;;
34098;SDS011;20374;49.474;10.944;2023-03-01T05:01:12;3.17;;;2.90;;
34098;SDS011;20374;49.474;10.944;2023-03-01T05:03:44;2.92;;;2.47;;
34098;SDS011;20374;49.474;10.944;2023-03-01T05:06:11;3.65;;;3.33;;
34098;SDS011;20374;49.474;10.944;2023-03-01T05:08:38;5.40;;;3.55;;
34098;SDS011;20374;49.474;10.944;2023-03-01T05:11:05;3.43;;;3.13;;
34098;SDS011;20374;49.474;10.944;2023-03-01T05:13:34;2.47;;;2.28;;
34098;SDS011;20374;49.474;10.944;2023-03-01T05:16:04;3.33;;;3.13;;
34098;SDS011;20374;49.474;10.944;2023-03-01T05:18:32;3.67;;;3.30;;
34098;SDS011;20374;49.474;10.944;2023-03-01T05:21:03;2.50;;;2.28;;
34098;SDS011;20374;49.474;10.944;2023-03-01T05:23:31;2.17;;;1.97;;
34098;SDS011;20374;49.474;10.944;2023-03-01T05:25:58;3.35;;;2.95;;
34098;SDS011;20374;49.474;10.944;2023-03-01T05:28:25;3.00;;;2.80;;
34098;SDS011;20374;49.474;10.944;2023-03-01T05:30:53;2.45;;;2.25;;
34098;SDS011;20374;49.474;10.944;2023-03-01T05:33:19;2.53;;;2.33;;
34098;SDS011;20374;49.474;10.944;2023-03-01T05:35:47;2.60;;;2.40;;
34098;SDS011;20374;49.474;10.944;2023-03-01T05:38:14;2.80;;;2.60;;
34098;SDS011;20374;49.474;10.944;2023-03-01T05:40:44;2.78;;;2.58;;
34098;SDS011;20374;49.474;10.944;2023-03-01T05:43:12;2.03;;;1.90;;
34098;SDS011;20374;49.474;10.944;2023-03-01T05:45:39;1.90;;;1.75;;
34098;SDS011;20374;49.474;10.944;2023-03-01T05:48:07;3.93;;;2.83;;
34098;SDS011;20374;49.474;10.944;2023-03-01T05:50:36;2.25;;;2.05;;
34098;SDS011;20374;49.474;10.944;2023-03-01T05:53:08;3.20;;;2.97;;
34098;SDS011;20374;49.474;10.944;2023-03-01T05:55:39;3.28;;;2.85;;
34098;SDS011;20374;49.474;10.944;2023-03-01T05:58:07;2.90;;;2.63;;
34098;SDS011;20374;49.474;10.944;2023-03-01T06:00:39;2.63;;;2.43;;
34098;SDS011;20374;49.474;10.944;2023-03-01T06:03:06;3.08;;;2.00;;
34098;SDS011;20374;49.474;10.944;2023-03-01T06:05:31;3.38;;;3.17;;
34098;SDS011;20374;49.474;10.944;2023-03-01T06:08:01;4.20;;;3.80;;
34098;SDS011;20374;49.474;10.944;2023-03-01T06:10:28;2.43;;;2.23;;
34098;SDS011;20374;49.474;10.944;2023-03-01T06:12:54;2.88;;;2.67;;
34098;SDS011;20374;49.474;10.944;2023-03-01T06:15:20;3.10;;;2.90;;
34098;SDS011;20374;49.474;10.944;2023-03-01T06:17:47;2.75;;;2.55;;
34098;SDS011;20374;49.474;10.944;2023-03-01T06:20:17;2.97;;;2.00;;
34098;SDS011;20374;49.474;10.944;2023-03-01T06:22:44;2.83;;;2.37;;
34098;SDS011;20374;49.474;10.944;2023-03-01T06:25:12;3.63;;;3.33;;
34098;SDS011;20374;49.474;10.944;2023-03-01T06:27:40;2.60;;;2.40;;
34098;SDS011;20374;49.474;10.944;2023-03-01T06:30:07;5.00;;;3.40;;
34098;SDS011;20374;49.474;10.944;2023-03-01T06:32:36;2.50;;;2.30;;
34098;SDS011;20374;49.474;10.944;2023-03-01T06:35:03;2.50;;;2.30;;
34098;SDS011;20374;49.474;10.944;2023-03-01T06:37:29;2.67;;;2.47;;
34098;SDS011;20374;49.474;10.944;2023-03-01T06:39:55;4.93;;;4.53;;
34098;SDS011;20374;49.474;10.944;2023-03-01T06:42:21;2.88;;;2.33;;
34098;SDS011;20374;49.474;10.944;2023-03-01T06:44:47;3.27;;;2.50;;
34098;SDS011;20374;49.474;10.944;2023-03-01T06:47:13;2.25;;;2.05;;
34098;SDS011;20374;49.474;10.944;2023-03-01T06:49:39;3.63;;;3.42;;
34098;SDS011;20374;49.474;10.944;2023-03-01T06:52:04;3.60;;;3.40;;
34098;SDS011;20374;49.474;10.944;2023-03-01T06:54:30;4.15;;;3.67;;
34098;SDS011;20374;49.474;10.944;2023-03-01T06:56:56;2.80;;;2.60;;
34098;SDS011;20374;49.474;10.944;2023-03-01T06:59:22;5.45;;;5.05;;
34098;SDS011;20374;49.474;10.944;2023-03-01T07:01:48;8.18;;;7.68;;
34098;SDS011;20374;49.474;10.944;2023-03-01T07:04:14;3.40;;;3.03;;
34098;SDS011;20374;49.474;10.944;2023-03-01T07:06:40;3.78;;;3.47;;
34098;SDS011;20374;49.474;10.944;2023-03-01T07:09:06;4.80;;;4.40;;
34098;SDS011;20374;49.474;10.944;2023-03-01T07:11:31;7.67;;;4.60;;
34098;SDS011;20374;49.474;10.944;2023-03-01T07:13:58;4.57;;;3.85;;
34098;SDS011;20374;49.474;10.944;2023-03-01T07:16:25;3.63;;;3.42;;
34098;SDS011;20374;49.474;10.944;2023-03-01T07:18:51;5.63;;;4.05;;
34098;SDS011;20374;49.474;10.944;2023-03-01T07:21:17;3.57;;;3.20;;
34098;SDS011;20374;49.474;10.944;2023-03-01T07:23:42;9.82;;;4.25;;
34098;SDS011;20374;49.474;10.944;2023-03-01T07:26:09;5.25;;;3.42;;
34098;SDS011;20374;49.474;10.944;2023-03-01T07:28:35;3.28;;;2.97;;
34098;SDS011;20374;49.474;10.944;2023-03-01T07:31:03;5.73;;;5.03;;
34098;SDS011;20374;49.474;10.944;2023-03-01T07:33:30;5.95;;;5.55;;
34098;SDS011;20374;49.474;10.944;2023-03-01T07:36:00;5.53;;;4.85;;
34098;SDS011;20374;49.474;10.944;2023-03-01T07:38:28;5.88;;;5.28;;
34098;SDS011;20374;49.474;10.944;2023-03-01T07:40:58;6.03;;;5.47;;
34098;SDS011;20374;49.474;10.944;2023-03-01T07:43:26;5.37;;;4.97;;
34098;SDS011;20374;49.474;10.944;2023-03-01T07:45:53;8.23;;;5.22;;
34098;SDS011;20374;49.474;10.944;2023-03-01T07:48:19;6.70;;;6.07;;
34098;SDS011;20374;49.474;10.944;2023-03-01T07:50:45;9.88;;;6.45;;
34098;SDS011;20374;49.474;10.944;2023-03-01T07:53:11;7.17;;;6.67;;
34098;SDS011;20374;49.474;10.944;2023-03-01T07:55:37;6.43;;;5.82;;
34098;SDS011;20374;49.474;10.944;2023-03-01T07:58:03;7.03;;;6.38;;
34098;SDS011;20374;49.474;10.944;2023-03-01T08:00:29;5.45;;;4.97;;
34098;SDS011;20374;49.474;10.944;2023-03-01T08:02:58;6.07;;;5.47;;
34098;SDS011;20374;49.474;10.944;2023-03-01T08:05:26;5.50;;;4.95;;
34098;SDS011;20374;49.474;10.944;2023-03-01T08:07:52;6.78;;;5.78;;
34098;SDS011;20374;49.474;10.944;2023-03-01T08:10:19;6.70;;;6.00;;
34098;SDS011;20374;49.474;10.944;2023-03-01T08:12:45;7.30;;;6.25;;
34098;SDS011;20374;49.474;10.944;2023-03-01T08:15:11;6.47;;;5.87;;
34098;SDS011;20374;49.474;10.944;2023-03-01T08:17:37;7.15;;;6.05;;
34098;SDS011;20374;49.474;10.944;2023-03-01T08:20:03;7.40;;;6.78;;
34098;SDS011;20374;49.474;10.944;2023-03-01T08:22:32;8.88;;;5.85;;
34098;SDS011;20374;49.474;10.944;2023-03-01T08:24:58;7.18;;;6.13;;
34098;SDS011;20374;49.474;10.944;2023-03-01T08:27:24;13.15;;;11.85;;
34098;SDS011;20374;49.474;10.944;2023-03-01T08:29:50;9.55;;;8.63;;
34098;SDS011;20374;49.474;10.944;2023-03-01T08:32:16;9.23;;;7.93;;
34098;SDS011;20374;49.474;10.944;2023-03-01T08:34:42;8.17;;;7.37;;
34098;SDS011;20374;49.474;10.944;2023-03-01T08:37:07;7.53;;;6.82;;
34098;SDS011;20374;49.474;10.944;2023-03-01T08:39:34;11.68;;;6.90;;
34098;SDS011;20374;49.474;10.944;2023-03-01T08:42:00;8.30;;;7.50;;
34098;SDS011;20374;49.474;10.944;2023-03-01T08:44:27;9.90;;;8.90;;
34098;SDS011;20374;49.474;10.944;2023-03-01T08:46:52;7.57;;;6.78;;
34098;SDS011;20374;49.474;10.944;2023-03-01T08:49:21;7.90;;;7.20;;
34098;SDS011;20374;49.474;10.944;2023-03-01T08:51:47;6.55;;;5.95;;
34098;SDS011;20374;49.474;10.944;2023-03-01T08:54:14;6.05;;;5.25;;
34098;SDS011;20374;49.474;10.944;2023-03-01T08:56:42;4.47;;;4.07;;
34098;SDS011;20374;49.474;10.944;2023-03-01T08:59:08;7.60;;;5.15;;
34098;SDS011;20374;49.474;10.944;2023-03-01T09:01:35;6.80;;;5.32;;
34098;SDS011;20374;49.474;10.944;2023-03-01T09:04:02;6.70;;;5.85;;
34098;SDS011;20374;49.474;10.944;2023-03-01T09:06:32;5.55;;;5.05;;
34098;SDS011;20374;49.474;10.944;2023-03-01T09:08:59;5.65;;;5.25;;
34098;SDS011;20374;49.474;10.944;2023-03-01T09:11:25;6.30;;;5.70;;
34098;SDS011;20374;49.474;10.944;2023-03-01T09:13:51;4.78;;;4.38;;
34098;SDS011;20374;49.474;10.944;2023-03-01T09:16:18;4.80;;;4.40;;
34098;SDS011;20374;49.474;10.944;2023-03-01T09:18:48;3.80;;;3.50;;
34098;SDS011;20374;49.474;10.944;2023-03-01T09:21:18;4.97;;;4.63;;
34098;SDS011;20374;49.474;10.944;2023-03-01T09:23:46;3.90;;;3.50;;
34098;SDS011;20374;49.474;10.944;2023-03-01T09:26:14;4.70;;;4.30;;
34098;SDS011;20374;49.474;10.944;2023-03-01T09:28:42;5.22;;;4.72;;
34098;SDS011;20374;49.474;10.944;2023-03-01T09:31:09;7.32;;;6.82;;
34098;SDS011;20374;49.474;10.944;2023-03-01T09:33:38;5.47;;;5.10;;
34098;SDS011;20374;49.474;10.944;2023-03-01T09:36:05;3.30;;;3.00;;
34098;SDS011;20374;49.474;10.944;2023-03-01T09:38:33;4.70;;;4.30;;
34098;SDS011;20374;49.474;10.944;2023-03-01T09:40:59;4.32;;;3.80;;
34098;SDS011;20374;49.474;10.944;2023-03-01T09:46:02;4.88;;;4.57;;
34098;SDS011;20374;49.474;10.944;2023-03-01T09:48:33;5.00;;;4.57;;
34098;SDS011;20374;49.474;10.944;2023-03-01T09:51:07;5.13;;;4.82;;
34098;SDS011;20374;49.474;10.944;2023-03-01T09:53:40;5.82;;;5.28;;
34098;SDS011;20374;49.474;10.944;2023-03-01T09:56:15;4.13;;;3.90;;
34098;SDS011;20374;49.474;10.944;2023-03-01T10:04:39;3.50;;;3.30;;
34098;SDS011;20374;49.474;10.944;2023-03-01T10:07:15;5.63;;;4.25;;
34098;SDS011;20374;49.474;10.944;2023-03-01T10:10:25;5.47;;;5.00;;
34098;SDS011;20374;49.474;10.944;2023-03-01T10:13:08;4.90;;;4.50;;
34098;SDS011;20374;49.474;10.944;2023-03-01T10:15:53;4.20;;;3.90;;
34098;SDS011;20374;49.474;10.944;2023-03-01T10:18:27;4.53;;;4.20;;
34098;SDS011;20374;49.474;10.944;2023-03-01T10:21:00;4.47;;;4.07;;
34098;SDS011;20374;49.474;10.944;2023-03-01T10:23:31;6.25;;;4.40;;
34098;SDS011;20374;49.474;10.944;2023-03-01T10:29:06;4.73;;;4.40;;
34098;SDS011;20374;49.474;10.944;2023-03-01T10:31:43;5.68;;;5.18;;
34098;SDS011;20374;49.474;10.944;2023-03-01T10:34:15;6.20;;;5.57;;
34098;SDS011;20374;49.474;10.944;2023-03-01T10:36:44;6.03;;;5.03;;
34098;SDS011;20374;49.474;10.944;2023-03-01T10:39:15;4.07;;;3.78;;
34098;SDS011;20374;49.474;10.944;2023-03-01T10:41:59;4.60;;;4.20;;
34098;SDS011;20374;49.474;10.944;2023-03-01T10:47:16;5.65;;;5.32;;
34098;SDS011;20374;49.474;10.944;2023-03-01T10:49:51;4.05;;;3.72;;
34098;SDS011;20374;49.474;10.944;2023-03-01T10:52:31;4.30;;;4.00;;
34098;SDS011;20374;49.474;10.944;2023-03-01T10:57:50;6.07;;;5.57;;
34098;SDS011;20374;49.474;10.944;2023-03-01T11:00:30;4.20;;;3.90;;
34098;SDS011;20374;49.474;10.944;2023-03-01T11:03:09;5.30;;;4.80;;
34098;SDS011;20374;49.474;10.944;2023-03-01T11:05:50;6.53;;;6.07;;
34098;SDS011;20374;49.474;10.944;2023-03-01T11:08:43;8.13;;;5.47;;
34098;SDS011;20374;49.474;10.944;2023-03-01T11:14:05;7.30;;;6.38;;
34098;SDS011;20374;49.474;10.944;2023-03-01T11:16:40;5.88;;;5.35;;
34098;SDS011;20374;49.474;10.944;2023-03-01T11:21:40;6.20;;;5.60;;
34098;SDS011;20374;49.474;10.944;2023-03-01T11:24:42;5.18;;;4.75;;
34098;SDS011;20374;49.474;10.944;2023-03-01T11:29:50;6.50;;;5.85;;
34098;SDS011;20374;49.474;10.944;2023-03-01T11:32:28;6.67;;;6.07;;
34098;SDS011;20374;49.474;10.944;2023-03-01T11:35:10;6.60;;;6.00;;
34098;SDS011;20374;49.474;10.944;2023-03-01T11:40:30;6.63;;;6.05;;
34098;SDS011;20374;49.474;10.944;2023-03-01T11:48:55;7.07;;;6.15;;
34098;SDS011;20374;49.474;10.944;2023-03-01T11:57:34;6.72;;;6.03;;
34098;SDS011;20374;49.474;10.944;2023-03-01T12:14:00;6.87;;;6.27;;
34098;SDS011;20374;49.474;10.944;2023-03-01T12:16:24;5.75;;;5.28;;
34098;SDS011;20374;49.474;10.944;2023-03-01T12:19:31;5.72;;;5.32;;
34098;SDS011;20374;49.474;10.944;2023-03-01T12:22:21;5.60;;;5.20;;
34098;SDS011;20374;49.474;10.944;2023-03-01T12:36:09;7.03;;;6.07;;
34098;SDS011;20374;49.474;10.944;2023-03-01T12:38:58;6.72;;;6.03;;
34098;SDS011;20374;49.474;10.944;2023-03-01T12:41:41;6.40;;;5.90;;
34098;SDS011;20374;49.474;10.944;2023-03-01T12:49:51;7.88;;;7.18;;
34098;SDS011;20374;49.474;10.944;2023-03-01T12:52:46;7.47;;;6.78;;
34098;SDS011;20374;49.474;10.944;2023-03-01T12:55:37;8.90;;;8.03;;
34098;SDS011;20374;49.474;10.944;2023-03-01T12:58:54;7.93;;;7.10;;
34098;SDS011;20374;49.474;10.944;2023-03-01T13:06:35;8.30;;;7.50;;
34098;SDS011;20374;49.474;10.944;2023-03-01T13:11:50;8.82;;;8.02;;
34098;SDS011;20374;49.474;10.944;2023-03-01T13:16:51;9.00;;;8.20;;
34098;SDS011;20374;49.474;10.944;2023-03-01T13:19:25;9.53;;;8.63;;
34098;SDS011;20374;49.474;10.944;2023-03-01T13:21:54;8.73;;;7.78;;
34098;SDS011;20374;49.474;10.944;2023-03-01T13:24:34;8.35;;;7.05;;
34098;SDS011;20374;49.474;10.944;2023-03-01T13:29:48;8.38;;;7.57;;
34098;SDS011;20374;49.474;10.944;2023-03-01T13:32:20;8.37;;;7.67;;
34098;SDS011;20374;49.474;10.944;2023-03-01T13:35:00;8.13;;;7.43;;
34098;SDS011;20374;49.474;10.944;2023-03-01T13:37:30;8.63;;;7.70;;
34098;SDS011;20374;49.474;10.944;2023-03-01T13:39:58;7.88;;;7.18;;
34098;SDS011;20374;49.474;10.944;2023-03-01T13:44:58;7.93;;;7.23;;
34098;SDS011;20374;49.474;10.944;2023-03-01T13:47:25;8.75;;;7.95;;
34098;SDS011;20374;49.474;10.944;2023-03-01T13:49:57;7.82;;;7.00;;
34098;SDS011;20374;49.474;10.944;2023-03-01T13:52:37;10.02;;;7.38;;
34098;SDS011;20374;49.474;10.944;2023-03-01T13:55:29;8.18;;;7.38;;
34098;SDS011;20374;49.474;10.944;2023-03-01T13:57:55;8.23;;;7.40;;
34098;SDS011;20374;49.474;10.944;2023-03-01T14:00:28;7.20;;;6.50;;
34098;SDS011;20374;49.474;10.944;2023-03-01T14:03:03;7.03;;;6.43;;
34098;SDS011;20374;49.474;10.944;2023-03-01T14:05:29;7.20;;;6.60;;
34098;SDS011;20374;49.474;10.944;2023-03-01T14:07:56;7.65;;;6.95;;
34098;SDS011;20374;49.474;10.944;2023-03-01T14:10:22;7.33;;;6.67;;
34098;SDS011;20374;49.474;10.944;2023-03-01T14:12:55;7.30;;;6.65;;
34098;SDS011;20374;49.474;10.944;2023-03-01T14:15:42;8.20;;;7.47;;
34098;SDS011;20374;49.474;10.944;2023-03-01T14:18:25;8.82;;;8.02;;
34098;SDS011;20374;49.474;10.944;2023-03-01T14:21:12;7.88;;;7.18;;
34098;SDS011;20374;49.474;10.944;2023-03-01T14:23:39;7.97;;;7.37;;
34098;SDS011;20374;49.474;10.944;2023-03-01T14:26:07;7.78;;;7.07;;
34098;SDS011;20374;49.474;10.944;2023-03-01T14:28:34;7.18;;;6.50;;
34098;SDS011;20374;49.474;10.944;2023-03-01T14:31:25;7.93;;;7.22;;
34098;SDS011;20374;49.474;10.944;2023-03-01T14:34:03;8.48;;;7.50;;
34098;SDS011;20374;49.474;10.944;2023-03-01T14:36:30;7.07;;;6.57;;
34098;SDS011;20374;49.474;10.944;2023-03-01T14:38:58;8.52;;;6.50;;
34098;SDS011;20374;49.474;10.944;2023-03-01T14:41:31;7.88;;;7.20;;
34098;SDS011;20374;49.474;10.944;2023-03-01T14:44:01;5.85;;;5.40;;
34098;SDS011;20374;49.474;10.944;2023-03-01T14:46:37;6.57;;;5.88;;
34098;SDS011;20374;49.474;10.944;2023-03-01T14:49:06;7.70;;;6.83;;
34098;SDS011;20374;49.474;10.944;2023-03-01T14:51:41;8.23;;;6.18;;
34098;SDS011;20374;49.474;10.944;2023-03-01T14:54:27;6.95;;;6.25;;
34098;SDS011;20374;49.474;10.944;2023-03-01T14:57:02;7.40;;;6.75;;
34098;SDS011;20374;49.474;10.944;2023-03-01T14:59:29;5.93;;;5.43;;
34098;SDS011;20374;49.474;10.944;2023-03-01T15:01:55;7.20;;;6.60;;
34098;SDS011;20374;49.474;10.944;2023-03-01T15:04:23;5.85;;;5.40;;
34098;SDS011;20374;49.474;10.944;2023-03-01T15:06:51;6.28;;;5.78;;
34098;SDS011;20374;49.474;10.944;2023-03-01T15:09:19;6.32;;;5.82;;
34098;SDS011;20374;49.474;10.944;2023-03-01T15:11:46;6.67;;;6.07;;
34098;SDS011;20374;49.474;10.944;2023-03-01T15:19:51;6.15;;;5.57;;
34098;SDS011;20374;49.474;10.944;2023-03-01T15:22:17;6.80;;;6.20;;
34098;SDS011;20374;49.474;10.944;2023-03-01T15:24:46;5.32;;;4.93;;
34098;SDS011;20374;49.474;10.944;2023-03-01T15:27:15;5.72;;;5.25;;
34098;SDS011;20374;49.474;10.944;2023-03-01T15:29:48;6.18;;;5.57;;
34098;SDS011;20374;49.474;10.944;2023-03-01T15:32:49;5.35;;;4.85;;
34098;SDS011;20374;49.474;10.944;2023-03-01T15:41:22;4.50;;;4.20;;
34098;SDS011;20374;49.474;10.944;2023-03-01T15:43:58;4.28;;;3.97;;
34098;SDS011;20374;49.474;10.944;2023-03-01T15:46:40;4.45;;;4.05;;
34098;SDS011;20374;49.474;10.944;2023-03-01T15:49:41;4.70;;;4.40;;
34098;SDS011;20374;49.474;10.944;2023-03-01T15:52:11;5.97;;;4.97;;
34098;SDS011;20374;49.474;10.944;2023-03-01T15:55:20;3.80;;;3.50;;
34098;SDS011;20374;49.474;10.944;2023-03-01T15:57:57;5.10;;;4.70;;
34098;SDS011;20374;49.474;10.944;2023-03-01T16:00:25;4.57;;;4.20;;
34098;SDS011;20374;49.474;10.944;2023-03-01T16:02:52;5.37;;;4.97;;
34098;SDS011;20374;49.474;10.944;2023-03-01T16:05:20;3.75;;;3.53;;
34098;SDS011;20374;49.474;10.944;2023-03-01T16:07:51;6.10;;;4.72;;
34098;SDS011;20374;49.474;10.944;2023-03-01T16:10:18;5.28;;;4.75;;
34098;SDS011;20374;49.474;10.944;2023-03-01T16:12:46;4.60;;;4.20;;
34098;SDS011;20374;49.474;10.944;2023-03-01T16:15:18;5.30;;;4.87;;
34098;SDS011;20374;49.474;10.944;2023-03-01T16:17:49;3.78;;;3.45;;
34098;SDS011;20374;49.474;10.944;2023-03-01T16:20:24;4.25;;;4.03;;
34098;SDS011;20374;49.474;10.944;2023-03-01T16:22:50;6.00;;;5.60;;
34098;SDS011;20374;49.474;10.944;2023-03-01T16:25:18;5.13;;;4.72;;
34098;SDS011;20374;49.474;10.944;2023-03-01T16:27:45;4.43;;;4.07;;
34098;SDS011;20374;49.474;10.944;2023-03-01T16:30:13;5.05;;;4.55;;
34098;SDS011;20374;49.474;10.944;2023-03-01T16:32:43;4.70;;;4.40;;
34098;SDS011;20374;49.474;10.944;2023-03-01T16:35:11;4.72;;;4.28;;
34098;SDS011;20374;49.474;10.944;2023-03-01T16:37:39;7.18;;;5.35;;
34098;SDS011;20374;49.474;10.944;2023-03-01T16:40:06;5.70;;;4.40;;
34098;SDS011;20374;49.474;10.944;2023-03-01T16:42:46;5.03;;;4.68;;
34098;SDS011;20374;49.474;10.944;2023-03-01T16:45:15;4.60;;;4.30;;
34098;SDS011;20374;49.474;10.944;2023-03-01T16:47:41;4.03;;;3.72;;